Search for airport 
image banner adimage banner adimage banner ad
image banner ad

0PA6 - Hostetler

Located in Huntingdon, United States

ICAO - 0PA6, IATA -

Data provided by Airmate  

General information

Coordinates: N40°37'51" W77°51'1"
Elevation is 760 feet MSL.
Magnetic variation is -10° East
View others Airports in Pennsylvania

Operational data

Special qualification required
Current time UTC:
Current local time:
Weather at : KRVL - Mifflin County ( 20 km )
METAR: KRVL 182235Z AUTO 20005KT 6SM HZ CLR 27/M34 A3025 RMK AO2
View NOTAMs / SUP AIP / TFR affecting this airport [VIEW]
Communications frequencies: [VIEW]

Runways:

RWY identifierQFULength (ft)Width (ft)SurfaceLDA (ft)
NE1800100GRASS
SW1800100GRASS

Airport contact information

Address: Huntingdon United States

Satellite view of 0PA6